LDVA weather

Varaždin Airport
Varaždin, Varaždin County, Croatia

Public forecast

Using degrees Celsius for public forecast. Weather courtesy of forecast.io.

Closest aviation weather report (METAR) to Varaždin Airport

Closest report is Maribor Airport, 30.9 nm (57.3 km) WNW. Retrieved 2020/06/04 11:00 UTC (24 minutes ago):

LJMB 041100Z 22016KT 180V250 9999 FEW046 SCT056 23/11 Q1001

Closest aviation forecast (TAF) to Varaždin Airport

Closest forecast is Maribor Airport, 30.9 nm (57.3 km) WNW. Retrieved 2020/06/04 06:05 UTC (5 hours ago):

TAF LJMB 040500Z 0406/0506 21008KT 9999 FEW050 BECMG 0406/0408 22012G25KT TEMPO 0500/0506 RA TEMPO 0422/0506 5000 TSRA SCT035CB BKN040 PROB30 TEMPO 0422/0506 33015G30KT 3500 +TSRA BKN015CB OVC025